createdAt,value
2019-01-15T00:02:03.169Z,0.90
2019-01-15T00:04:40.333Z,1.40
2019-01-15T00:07:16.787Z,0.95
2019-01-15T00:09:53.665Z,1.65
2019-01-15T00:12:30.280Z,0.90
2019-01-15T00:15:07.378Z,1.10
2019-01-15T00:17:43.763Z,1.02
2019-01-15T00:20:19.561Z,1.10
2019-01-15T00:22:55.680Z,1.07
2019-01-15T00:25:31.867Z,0.95
2019-01-15T00:28:08.516Z,1.00
2019-01-15T00:30:44.912Z,0.93
2019-01-15T00:33:21.353Z,1.32
2019-01-15T00:35:57.850Z,1.05
2019-01-15T00:38:34.660Z,0.75
2019-01-15T00:41:10.893Z,1.00
2019-01-15T00:43:47.224Z,1.27
2019-01-15T00:46:23.170Z,1.20
2019-01-15T00:48:59.181Z,1.35
2019-01-15T00:51:35.940Z,0.80
2019-01-15T00:54:12.301Z,0.80
2019-01-15T00:56:49.229Z,1.07
2019-01-15T00:59:26.243Z,0.90
2019-01-15T01:02:03.161Z,0.93
2019-01-15T01:04:38.836Z,1.00
2019-01-15T01:07:15.399Z,0.88
2019-01-15T01:09:52.675Z,0.80
2019-01-15T01:12:28.607Z,0.80
2019-01-15T01:15:06.841Z,1.37
2019-01-15T01:17:43.279Z,0.90
2019-01-15T01:20:22.325Z,1.00
2019-01-15T01:22:59.284Z,0.70
2019-01-15T01:25:35.653Z,0.85
2019-01-15T01:28:12.817Z,1.17
2019-01-15T01:30:49.213Z,0.90
2019-01-15T01:33:25.862Z,0.98
2019-01-15T01:36:02.248Z,0.80
2019-01-15T01:38:38.797Z,1.25
2019-01-15T01:41:16.005Z,1.20
2019-01-15T01:43:53.261Z,0.72
2019-01-15T01:46:29.442Z,1.00
2019-01-15T01:49:05.391Z,0.98
2019-01-15T01:52:00.616Z,0.80
2019-01-15T01:54:37.113Z,1.10
2019-01-15T01:57:14.369Z,0.90
2019-01-15T01:59:51.025Z,0.90
2019-01-15T02:02:26.912Z,0.68
2019-01-15T02:05:03.233Z,0.53
2019-01-15T02:07:39.937Z,1.10
2019-01-15T02:10:20.109Z,0.80
2019-01-15T02:12:55.910Z,0.85
2019-01-15T02:15:32.721Z,0.80
2019-01-15T02:18:09.447Z,0.88
2019-01-15T02:20:46.468Z,0.95
2019-01-15T02:23:23.126Z,0.90
2019-01-15T02:25:59.604Z,0.95
2019-01-15T02:28:36.259Z,0.93
2019-01-15T02:31:12.265Z,1.00
2019-01-15T02:33:48.873Z,1.22
2019-01-15T02:36:25.160Z,0.90
2019-01-15T02:39:01.354Z,1.05
2019-01-15T02:41:38.093Z,0.93
2019-01-15T02:44:14.490Z,0.93
2019-01-15T02:46:50.798Z,0.88
2019-01-15T02:49:26.774Z,1.10
2019-01-15T02:52:02.717Z,1.00
2019-01-15T02:54:38.717Z,0.70
2019-01-15T02:57:15.170Z,0.95
2019-01-15T02:59:51.354Z,1.02
2019-01-15T03:02:27.580Z,0.80
2019-01-15T03:05:04.488Z,0.80
2019-01-15T03:07:41.234Z,1.15
2019-01-15T03:10:18.126Z,0.80
2019-01-15T03:12:56.328Z,0.80
2019-01-15T03:15:33.450Z,1.00
2019-01-15T03:18:09.990Z,0.80
2019-01-15T03:20:46.120Z,0.82
2019-01-15T03:23:22.485Z,0.82
2019-01-15T03:25:59.504Z,0.80
2019-01-15T03:28:36.564Z,0.98
2019-01-15T03:31:12.602Z,1.12
2019-01-15T03:33:49.351Z,0.55
2019-01-15T03:36:25.745Z,0.80
2019-01-15T03:39:03.012Z,0.90
2019-01-15T03:41:39.751Z,1.10
2019-01-15T03:44:17.026Z,0.90
2019-01-15T03:46:53.161Z,0.85
2019-01-15T03:49:30.277Z,1.10
2019-01-15T03:52:06.276Z,0.85
2019-01-15T03:54:43.653Z,0.88
2019-01-15T03:57:20.390Z,0.80
2019-01-15T03:59:56.493Z,0.85
2019-01-15T04:02:32.690Z,0.80
2019-01-15T04:05:09.157Z,0.68
2019-01-15T04:07:45.261Z,0.70
2019-01-15T04:10:20.968Z,0.90
2019-01-15T04:12:58.415Z,0.80
2019-01-15T04:15:35.187Z,0.80
2019-01-15T04:18:11.602Z,0.95
2019-01-15T04:20:48.425Z,0.70
2019-01-15T04:23:24.692Z,1.00
2019-01-15T04:26:01.049Z,0.90
2019-01-15T04:28:37.397Z,1.05
2019-01-15T04:31:13.585Z,1.20
2019-01-15T04:33:51.162Z,0.80
2019-01-15T04:36:27.169Z,0.90
2019-01-15T04:39:03.490Z,0.85
2019-01-15T04:41:40.394Z,0.90
2019-01-15T04:44:17.437Z,0.98
2019-01-15T04:46:54.225Z,0.80
2019-01-15T04:49:31.273Z,0.78
2019-01-15T04:52:08.092Z,0.80
2019-01-15T04:54:44.875Z,0.98
2019-01-15T04:57:21.685Z,0.93
2019-01-15T04:59:58.413Z,0.90
2019-01-15T05:02:35.061Z,0.65
2019-01-15T05:05:12.214Z,0.75
2019-01-15T05:07:48.775Z,0.75
2019-01-15T05:10:25.285Z,0.98
2019-01-15T05:13:02.093Z,0.90
2019-01-15T05:15:38.872Z,0.70
2019-01-15T05:18:15.817Z,0.50
2019-01-15T05:20:52.526Z,0.80
2019-01-15T05:23:29.753Z,0.90
2019-01-15T05:26:06.438Z,0.93
2019-01-15T05:28:43.166Z,0.80
2019-01-15T05:31:19.234Z,0.70
2019-01-15T05:33:55.971Z,0.60
2019-01-15T05:36:32.388Z,0.90
2019-01-15T05:39:09.213Z,0.82
2019-01-15T05:41:45.188Z,0.60
2019-01-15T05:44:22.141Z,0.55
2019-01-15T05:46:58.180Z,0.60
2019-01-15T05:49:34.017Z,0.80
2019-01-15T05:52:10.602Z,0.80
2019-01-15T05:54:47.696Z,0.80
2019-01-15T05:57:24.492Z,0.72
2019-01-15T06:00:01.286Z,0.90
2019-01-15T06:02:36.916Z,0.93
2019-01-15T06:05:12.980Z,0.88
2019-01-15T06:07:48.922Z,0.90
2019-01-15T06:10:25.313Z,0.95
2019-01-15T06:13:02.341Z,1.57
2019-01-15T06:15:38.413Z,1.30
2019-01-15T06:18:14.988Z,1.90
2019-01-15T06:20:50.901Z,2.30
2019-01-15T06:23:27.744Z,1.90
2019-01-15T06:26:04.283Z,1.60
2019-01-15T06:28:40.757Z,2.12
2019-01-15T06:31:18.437Z,2.08
2019-01-15T06:33:55.037Z,2.05
2019-01-15T06:36:31.499Z,1.95
2019-01-15T06:39:09.493Z,1.52
2019-01-15T06:41:45.808Z,2.30
2019-01-15T06:44:21.855Z,1.90
2019-01-15T06:46:58.609Z,2.27
2019-01-15T06:49:34.281Z,2.25
2019-01-15T06:52:11.160Z,1.60
2019-01-15T06:54:47.408Z,1.45
2019-01-15T06:57:24.344Z,2.00
2019-01-15T07:00:01.695Z,1.70
2019-01-15T07:02:37.683Z,1.87
2019-01-15T07:05:14.464Z,1.45
2019-01-15T07:07:51.240Z,1.77
2019-01-15T07:10:30.588Z,1.92
2019-01-15T07:13:07.356Z,2.27
2019-01-15T07:15:43.781Z,2.12
2019-01-15T07:18:20.119Z,1.80
2019-01-15T07:20:57.397Z,1.92
2019-01-15T07:23:33.551Z,1.85
2019-01-15T07:26:10.360Z,1.85
2019-01-15T07:28:59.709Z,1.57
2019-01-15T07:31:35.860Z,1.87
2019-01-15T07:34:13.325Z,1.62
2019-01-15T07:36:49.644Z,1.72
2019-01-15T07:39:27.441Z,1.60
2019-01-15T07:42:03.565Z,1.60
2019-01-15T07:44:40.089Z,1.92
2019-01-15T07:47:16.686Z,1.82
2019-01-15T07:49:53.252Z,1.92
2019-01-15T07:52:29.582Z,2.25
2019-01-15T07:55:08.079Z,2.05
2019-01-15T07:57:44.846Z,2.52
2019-01-15T08:00:21.298Z,1.90
2019-01-15T08:02:56.996Z,1.85
2019-01-15T08:05:33.898Z,1.87
2019-01-15T08:08:10.084Z,1.95
2019-01-15T08:10:46.800Z,2.20
2019-01-15T08:13:22.982Z,1.57
2019-01-15T08:15:59.444Z,2.02
2019-01-15T08:18:35.833Z,1.67
2019-01-15T08:21:12.185Z,1.62
2019-01-15T08:23:48.905Z,1.60
2019-01-15T08:26:25.014Z,1.77
2019-01-15T08:29:01.501Z,1.85
2019-01-15T08:31:37.117Z,1.50
2019-01-15T08:34:13.644Z,1.45
2019-01-15T08:36:50.262Z,1.67
2019-01-15T08:39:26.697Z,1.40
2019-01-15T08:42:03.235Z,1.70
2019-01-15T08:44:40.094Z,1.62
2019-01-15T08:47:17.626Z,1.50
2019-01-15T08:49:54.829Z,1.60
2019-01-15T08:52:30.909Z,1.67
2019-01-15T08:55:07.376Z,1.80
2019-01-15T08:57:45.220Z,1.57
2019-01-15T09:00:21.962Z,1.40
2019-01-15T09:02:58.264Z,1.60
2019-01-15T09:05:34.508Z,1.40
2019-01-15T09:08:10.905Z,1.50
2019-01-15T09:10:47.323Z,1.20
2019-01-15T09:13:23.980Z,1.30
2019-01-15T09:16:00.520Z,1.50
2019-01-15T09:18:36.665Z,1.40
2019-01-15T09:21:13.117Z,1.80
2019-01-15T09:23:49.630Z,1.30
2019-01-15T09:26:27.105Z,1.20
2019-01-15T09:29:03.845Z,1.10
2019-01-15T09:31:40.309Z,1.40
2019-01-15T09:34:18.873Z,1.12
2019-01-15T09:36:55.109Z,1.40
2019-01-15T09:39:32.100Z,1.42
2019-01-15T09:42:08.833Z,1.52
2019-01-15T09:44:45.415Z,2.00
2019-01-15T09:47:22.113Z,1.50
2019-01-15T09:49:58.400Z,1.57
2019-01-15T09:52:35.109Z,1.10
2019-01-15T09:55:11.928Z,1.40
2019-01-15T09:57:48.732Z,0.80
2019-01-15T10:00:24.433Z,1.50
2019-01-15T10:03:00.789Z,1.60
2019-01-15T10:05:37.695Z,1.22
2019-01-15T10:08:14.050Z,1.57
2019-01-15T10:10:50.668Z,1.50
2019-01-15T10:13:27.334Z,1.10
2019-01-15T10:16:03.116Z,1.20
2019-01-15T10:18:39.801Z,1.05
2019-01-15T10:21:16.400Z,1.10
2019-01-15T10:23:52.998Z,1.12
2019-01-15T10:26:30.904Z,1.15
2019-01-15T10:29:07.574Z,1.32
2019-01-15T10:32:20.841Z,1.07
2019-01-15T10:34:57.329Z,1.67
2019-01-15T10:37:33.677Z,1.10
2019-01-15T10:40:10.268Z,1.52
2019-01-15T10:42:46.738Z,1.02
2019-01-15T10:45:23.604Z,1.40
2019-01-15T10:47:59.875Z,1.30
2019-01-15T10:50:35.890Z,1.17
2019-01-15T10:53:12.041Z,1.10
2019-01-15T10:55:48.045Z,1.07
2019-01-15T10:58:25.573Z,1.30
2019-01-15T11:01:02.081Z,1.00
2019-01-15T11:03:38.205Z,0.90
2019-01-15T11:06:13.864Z,1.20
2019-01-15T11:08:50.915Z,1.17
2019-01-15T11:11:27.693Z,1.17
2019-01-15T11:14:04.129Z,1.00
2019-01-15T11:16:39.801Z,1.10
2019-01-15T11:19:15.956Z,1.00
2019-01-15T11:21:51.709Z,0.88
2019-01-15T11:24:27.881Z,1.10
2019-01-15T11:27:04.452Z,1.10
2019-01-15T11:29:41.383Z,1.20
2019-01-15T11:32:17.040Z,1.22
2019-01-15T11:34:53.948Z,1.05
2019-01-15T11:37:30.203Z,1.07
2019-01-15T11:40:08.363Z,0.98
2019-01-15T11:42:45.068Z,1.30
2019-01-15T11:45:21.574Z,1.47
2019-01-15T11:47:57.312Z,1.07
2019-01-15T11:50:33.521Z,1.07
2019-01-15T11:53:09.529Z,1.00
2019-01-15T11:55:45.896Z,1.00
2019-01-15T11:58:22.969Z,1.12
2019-01-15T12:01:21.154Z,1.10
2019-01-15T12:04:16.780Z,1.30
2019-01-15T12:07:24.689Z,1.20
2019-01-15T12:10:19.322Z,1.12
2019-01-15T12:13:17.333Z,1.07
2019-01-15T12:16:19.466Z,1.35
2019-01-15T12:19:13.871Z,1.00
2019-01-15T12:22:08.782Z,1.10
2019-01-15T12:25:10.388Z,1.47
2019-01-15T12:28:05.991Z,1.15
2019-01-15T12:30:53.908Z,1.70
2019-01-15T12:33:56.759Z,1.00
2019-01-15T12:36:47.436Z,1.47
2019-01-15T12:39:46.232Z,1.52
2019-01-15T12:42:51.144Z,1.35
2019-01-15T12:45:45.545Z,1.22
2019-01-15T12:48:45.865Z,1.30
2019-01-15T12:51:40.241Z,1.20
2019-01-15T12:54:35.066Z,1.10
2019-01-15T12:57:37.095Z,1.10
2019-01-15T13:00:46.121Z,1.30
2019-01-15T13:03:45.277Z,1.47
2019-01-15T13:06:39.839Z,1.70
2019-01-15T13:09:41.536Z,1.32
2019-01-15T13:12:42.947Z,1.52
2019-01-15T13:15:34.447Z,1.17
2019-01-15T13:18:27.662Z,1.02
2019-01-15T13:21:26.620Z,1.15
2019-01-15T13:24:34.633Z,1.45
2019-01-15T13:27:19.988Z,1.22
2019-01-15T13:30:21.957Z,1.42
2019-01-15T13:33:36.766Z,1.40
2019-01-15T13:36:33.081Z,1.30
2019-01-15T13:39:33.664Z,1.50
2019-01-15T13:42:28.925Z,1.82
2019-01-15T13:45:28.892Z,1.67
2019-01-15T13:48:40.924Z,1.75
2019-01-15T13:51:51.174Z,1.30
2019-01-15T13:54:55.860Z,1.40
2019-01-15T13:57:50.882Z,1.55
2019-01-15T14:00:35.751Z,2.08
2019-01-15T14:03:33.593Z,1.40
2019-01-15T14:06:38.205Z,1.40
2019-01-15T14:09:32.880Z,1.17
2019-01-15T14:12:42.984Z,1.57
2019-01-15T14:15:36.592Z,1.60
2019-01-15T14:18:39.920Z,1.40
2019-01-15T14:21:34.200Z,1.50
2019-01-15T14:24:29.109Z,1.50
2019-01-15T14:27:13.940Z,1.37
2019-01-15T14:30:10.716Z,1.40
2019-01-15T14:32:57.400Z,1.20
2019-01-15T14:35:41.614Z,1.42
2019-01-15T14:38:38.001Z,1.25
2019-01-15T14:41:24.316Z,1.20
2019-01-15T14:44:22.913Z,1.40
2019-01-15T14:47:34.683Z,1.12
2019-01-15T14:50:42.423Z,1.37
2019-01-15T14:53:37.467Z,1.40
2019-01-15T14:56:43.713Z,1.35
2019-01-15T14:59:39.182Z,1.10
2019-01-15T15:02:33.322Z,1.50
2019-01-15T15:05:30.513Z,1.45
2019-01-15T15:08:35.437Z,1.45
2019-01-15T15:11:36.255Z,1.30
2019-01-15T15:14:22.437Z,1.35
2019-01-15T15:17:17.712Z,1.27
2019-01-15T15:20:20.854Z,1.47
2019-01-15T15:23:14.802Z,1.20
2019-01-15T15:26:16.024Z,1.27
2019-01-15T15:29:15.061Z,1.30
2019-01-15T15:32:13.944Z,1.20
2019-01-15T15:35:09.138Z,1.25
2019-01-15T15:38:11.976Z,1.37
2019-01-15T15:40:58.200Z,1.25
2019-01-15T15:43:51.842Z,1.40
2019-01-15T15:46:53.289Z,1.30
2019-01-15T15:49:48.929Z,1.32
2019-01-15T15:52:41.820Z,1.30
2019-01-15T15:55:35.327Z,1.30
2019-01-15T15:58:31.079Z,1.15
2019-01-15T16:01:25.210Z,1.25
2019-01-15T16:04:25.143Z,1.30
2019-01-15T16:07:15.648Z,1.15
2019-01-15T16:10:07.274Z,1.70
2019-01-15T16:13:02.001Z,1.20
2019-01-15T16:15:57.513Z,1.07
2019-01-15T16:18:50.925Z,1.40
2019-01-15T16:21:43.902Z,1.12
2019-01-15T16:24:50.477Z,1.42
2019-01-15T16:27:46.228Z,1.20
2019-01-15T16:30:47.994Z,1.25
2019-01-15T16:33:42.694Z,1.30
2019-01-15T16:36:36.224Z,1.42
2019-01-15T16:39:26.356Z,1.20
2019-01-15T16:42:14.023Z,1.27
2019-01-15T16:45:09.352Z,1.17
2019-01-15T16:47:55.570Z,1.42
2019-01-15T16:50:50.733Z,1.15
2019-01-15T16:54:01.439Z,1.20
2019-01-15T16:56:55.263Z,1.40
2019-01-15T17:00:09.261Z,1.17
2019-01-15T17:03:00.905Z,1.05
2019-01-15T17:05:55.354Z,1.37
2019-01-15T17:08:55.660Z,1.30
2019-01-15T17:12:00.331Z,2.17
2019-01-15T17:14:56.173Z,1.57
2019-01-15T17:17:54.253Z,2.17
2019-01-15T17:20:41.617Z,1.65
2019-01-15T17:23:36.872Z,1.42
2019-01-15T17:26:37.955Z,1.47
2019-01-15T17:29:48.453Z,1.62
2019-01-15T17:32:36.845Z,1.75
2019-01-15T17:35:38.409Z,1.45
2019-01-15T17:38:37.373Z,1.30
2019-01-15T17:41:32.692Z,1.92
2019-01-15T17:44:18.978Z,1.90
2019-01-15T17:47:20.511Z,1.82
2019-01-15T17:50:14.860Z,1.72
2019-01-15T17:53:19.562Z,2.65
2019-01-15T17:56:09.869Z,2.40
2019-01-15T17:59:04.052Z,2.70
2019-01-15T18:01:59.875Z,2.45
2019-01-15T18:04:58.547Z,2.95
2019-01-15T18:08:00.469Z,2.70
2019-01-15T18:10:55.126Z,2.77
2019-01-15T18:14:00.825Z,2.70
2019-01-15T18:16:58.117Z,2.10
2019-01-15T18:19:40.736Z,2.62
2019-01-15T18:22:34.526Z,2.25
2019-01-15T18:25:29.070Z,2.62
2019-01-15T18:28:24.292Z,2.75
2019-01-15T18:31:23.357Z,2.33
2019-01-15T18:34:16.209Z,2.77
2019-01-15T18:37:11.553Z,2.60
2019-01-15T18:40:04.278Z,2.45
2019-01-15T18:42:59.920Z,2.67
2019-01-15T18:45:42.336Z,3.37
2019-01-15T18:48:42.845Z,2.77
2019-01-15T18:51:36.842Z,3.92
2019-01-15T18:54:50.716Z,2.62
2019-01-15T18:57:51.435Z,2.80
2019-01-15T19:00:55.254Z,2.52
2019-01-15T19:03:49.078Z,3.17
2019-01-15T19:06:44.309Z,2.67
2019-01-15T19:09:42.996Z,2.60
2019-01-15T19:12:40.678Z,2.45
2019-01-15T19:15:35.005Z,2.60
2019-01-15T19:18:30.599Z,2.50
2019-01-15T19:21:28.533Z,3.05
2019-01-15T19:24:23.633Z,2.85
2019-01-15T19:27:20.062Z,2.27
2019-01-15T19:30:18.207Z,2.80
2019-01-15T19:33:11.782Z,2.52
2019-01-15T19:36:05.914Z,2.30
2019-01-15T19:39:16.945Z,2.75
2019-01-15T19:42:30.504Z,3.05
2019-01-15T19:45:24.418Z,2.15
2019-01-15T19:48:18.849Z,2.10
2019-01-15T19:51:04.104Z,2.27
2019-01-15T19:53:52.044Z,1.95
2019-01-15T19:56:46.884Z,2.45
2019-01-15T19:59:41.184Z,2.17
2019-01-15T20:02:35.081Z,2.00
2019-01-15T20:05:25.847Z,2.05
2019-01-15T20:08:20.141Z,2.17
2019-01-15T20:11:19.014Z,1.82
2019-01-15T20:14:17.939Z,2.27
2019-01-15T20:17:18.354Z,2.10
2019-01-15T20:20:24.367Z,2.22
2019-01-15T20:23:28.562Z,2.05
2019-01-15T20:26:22.584Z,2.10
2019-01-15T20:29:16.672Z,2.20
2019-01-15T20:32:15.598Z,2.80
2019-01-15T20:35:20.208Z,1.92
2019-01-15T20:38:14.652Z,2.12
2019-01-15T20:41:15.924Z,2.27
2019-01-15T20:44:17.220Z,2.47
2019-01-15T20:47:25.710Z,1.98
2019-01-15T20:50:20.116Z,2.17
2019-01-15T20:53:35.964Z,1.82
2019-01-15T20:56:37.440Z,1.75
2019-01-15T20:59:45.512Z,2.00
2019-01-15T21:02:41.116Z,2.08
2019-01-15T21:05:41.898Z,2.50
2019-01-15T21:08:40.636Z,1.40
2019-01-15T21:11:32.937Z,1.72
2019-01-15T21:14:30.674Z,1.55
2019-01-15T21:17:22.436Z,1.87
2019-01-15T21:20:11.820Z,2.47
2019-01-15T21:23:20.020Z,1.75
2019-01-15T21:26:08.197Z,1.92
2019-01-15T21:28:57.313Z,2.17
2019-01-15T21:31:50.322Z,1.98
2019-01-15T21:34:41.836Z,1.55
2019-01-15T21:37:36.056Z,2.10
2019-01-15T21:40:25.892Z,1.90
2019-01-15T21:43:20.018Z,1.95
2019-01-15T21:46:27.623Z,1.70
2019-01-15T21:49:13.817Z,1.75
2019-01-15T21:52:08.937Z,1.82
2019-01-15T21:55:04.957Z,1.62
2019-01-15T21:58:00.961Z,2.05
2019-01-15T22:01:05.521Z,2.27
2019-01-15T22:03:59.918Z,2.17
2019-01-15T22:06:54.355Z,1.60
2019-01-15T22:09:49.038Z,2.08
2019-01-15T22:13:06.395Z,1.82
2019-01-15T22:15:55.655Z,1.95
2019-01-15T22:18:51.457Z,1.60
2019-01-15T22:21:47.004Z,1.65
2019-01-15T22:24:52.055Z,1.72
2019-01-15T22:27:46.681Z,1.60
2019-01-15T22:30:40.121Z,1.72
2019-01-15T22:33:39.426Z,2.02
2019-01-15T22:36:47.410Z,1.70
2019-01-15T22:39:52.505Z,2.05
2019-01-15T22:42:39.389Z,1.75
2019-01-15T22:45:41.926Z,1.95
2019-01-15T22:48:37.268Z,2.02
2019-01-15T22:51:30.922Z,2.05
2019-01-15T22:54:22.135Z,1.98
2019-01-15T22:57:16.970Z,1.90
2019-01-15T23:00:28.080Z,1.60
2019-01-15T23:03:42.089Z,1.45
2019-01-15T23:06:42.932Z,1.70
2019-01-15T23:09:38.534Z,2.20
2019-01-15T23:12:34.292Z,1.75
2019-01-15T23:15:25.046Z,1.75
2019-01-15T23:18:20.168Z,2.65
2019-01-15T23:21:25.795Z,1.77
2019-01-15T23:24:33.072Z,1.80
2019-01-15T23:27:34.395Z,2.22
2019-01-15T23:30:39.200Z,1.72
2019-01-15T23:33:28.713Z,1.40
2019-01-15T23:36:26.629Z,1.62
2019-01-15T23:39:26.703Z,1.40
2019-01-15T23:42:28.312Z,1.70
2019-01-15T23:45:32.944Z,1.90
2019-01-15T23:48:38.164Z,1.70
2019-01-15T23:51:38.305Z,1.70
2019-01-15T23:54:25.379Z,2.08
2019-01-15T23:57:26.509Z,1.67
